createdAt,value
2023-03-31T00:00:25.114Z,97489.47
2023-03-31T00:03:48.212Z,97482.47
2023-03-31T00:06:54.555Z,97466.97
2023-03-31T00:10:16.664Z,97462.22
2023-03-31T00:13:21.325Z,97467.31
2023-03-31T00:16:24.924Z,97468.94
2023-03-31T00:19:29.055Z,97466.16
2023-03-31T00:22:32.728Z,97451.91
2023-03-31T00:25:40.791Z,97445.53
2023-03-31T00:28:43.740Z,97445.91
2023-03-31T00:31:46.657Z,97440.44
2023-03-31T00:34:49.907Z,97445.78
2023-03-31T00:37:57.941Z,97437.19
2023-03-31T00:41:03.741Z,97437.19
2023-03-31T00:44:13.091Z,97430.72
2023-03-31T00:47:20.990Z,97435.72
2023-03-31T00:50:29.026Z,97439.72
2023-03-31T00:53:34.567Z,97426.78
2023-03-31T00:56:42.706Z,97424.56
2023-03-31T00:59:50.860Z,97427.38
2023-03-31T01:03:13.848Z,97414.91
2023-03-31T01:06:19.856Z,97414.22
2023-03-31T01:09:24.915Z,97412.25
2023-03-31T01:12:30.204Z,97403.84
2023-03-31T01:15:33.793Z,97392.88
2023-03-31T01:18:57.534Z,97388.19
2023-03-31T01:22:33.658Z,97385.09
2023-03-31T01:26:10.793Z,97377.16
2023-03-31T01:29:42.012Z,97383.16
2023-03-31T01:33:54.130Z,97374.03
2023-03-31T01:37:37.547Z,97377.97
2023-03-31T01:41:02.677Z,97373.97
2023-03-31T01:44:12.328Z,97374.25
2023-03-31T01:47:23.039Z,97355.94
2023-03-31T01:50:30.671Z,97350.84
2023-03-31T01:53:40.605Z,97347.25
2023-03-31T01:56:50.304Z,97339.38
2023-03-31T01:59:59.971Z,97334.38
2023-03-31T02:03:29.298Z,97319.72
2023-03-31T02:06:39.958Z,97333.84
2023-03-31T02:09:47.666Z,97330.44
2023-03-31T02:12:54.431Z,97303.06
2023-03-31T02:16:03.427Z,97315.97
2023-03-31T02:19:29.880Z,97313.31
2023-03-31T02:22:38.622Z,97317.19
2023-03-31T02:25:48.311Z,97313.63
2023-03-31T02:28:53.081Z,97305.81
2023-03-31T02:32:02.319Z,97314.47
2023-03-31T02:35:07.559Z,97310.53
2023-03-31T02:38:11.686Z,97301.41
2023-03-31T02:41:14.945Z,97293.13
2023-03-31T02:44:19.481Z,97290.78
2023-03-31T02:47:23.164Z,97282.13
2023-03-31T02:50:34.399Z,97290.63
2023-03-31T02:53:49.688Z,97272.09
2023-03-31T02:57:10.783Z,97263.91
2023-03-31T03:00:24.439Z,97255.16
2023-03-31T03:04:06.221Z,97247.03
2023-03-31T03:07:18.244Z,97233.75
2023-03-31T03:10:29.456Z,97233.13
2023-03-31T03:13:37.763Z,97219.25
2023-03-31T03:16:46.187Z,97208.66
2023-03-31T03:19:55.193Z,97206.41
2023-03-31T03:22:58.743Z,97200.41
2023-03-31T03:26:02.011Z,97196.03
2023-03-31T03:29:05.284Z,97199.09
2023-03-31T03:35:08.865Z,97185.50
2023-03-31T03:38:12.076Z,97174.66
2023-03-31T03:41:15.320Z,97172.84
2023-03-31T03:44:18.470Z,97165.38
2023-03-31T03:47:21.672Z,97157.75
2023-03-31T03:50:26.303Z,97166.16
2023-03-31T03:53:29.888Z,97160.25
2023-03-31T03:56:33.392Z,97148.00
2023-03-31T03:59:36.675Z,97149.53
2023-03-31T04:02:59.747Z,97154.53
2023-03-31T04:06:04.814Z,97155.53
2023-03-31T04:09:08.170Z,97145.69
2023-03-31T04:12:11.274Z,97141.75
2023-03-31T04:15:14.391Z,97134.69
2023-03-31T04:18:42.598Z,97123.06
2023-03-31T04:21:58.598Z,97120.72
2023-03-31T04:25:03.633Z,97112.03
2023-03-31T04:28:07.000Z,97106.19
2023-03-31T04:31:15.402Z,97103.38
2023-03-31T04:34:18.686Z,97094.66
2023-03-31T04:37:28.232Z,97087.38
2023-03-31T04:40:31.458Z,97067.75
2023-03-31T04:43:34.605Z,97063.28
2023-03-31T04:46:37.774Z,97049.63
2023-03-31T04:49:40.999Z,97046.88
2023-03-31T04:52:53.161Z,97043.53
2023-03-31T04:55:56.503Z,97040.84
2023-03-31T04:58:59.676Z,97022.38
2023-03-31T05:02:02.842Z,97026.44
2023-03-31T05:05:06.662Z,97033.53
2023-03-31T05:08:11.158Z,96997.56
2023-03-31T05:11:14.311Z,97018.53
2023-03-31T05:14:17.606Z,97007.81
2023-03-31T05:17:22.252Z,97011.56
2023-03-31T05:20:25.690Z,97015.41
2023-03-31T05:23:30.814Z,96998.03
2023-03-31T05:26:34.189Z,96986.28
2023-03-31T05:29:37.366Z,96964.53
2023-03-31T05:33:00.298Z,96955.34
2023-03-31T05:36:03.956Z,96952.84
2023-03-31T05:39:08.729Z,96946.03
2023-03-31T05:42:12.058Z,96934.81
2023-03-31T05:45:15.305Z,96937.19
2023-03-31T05:48:38.311Z,96927.59
2023-03-31T05:51:41.883Z,96931.03
2023-03-31T05:54:46.441Z,96922.66
2023-03-31T05:57:49.547Z,96926.16
2023-03-31T06:01:02.190Z,96923.75
2023-03-31T06:04:25.442Z,96911.66
2023-03-31T06:07:28.723Z,96919.31
2023-03-31T06:10:33.313Z,96913.06
2023-03-31T06:13:37.084Z,96906.25
2023-03-31T06:16:40.280Z,96916.19
2023-03-31T06:19:43.569Z,96909.38
2023-03-31T06:22:53.521Z,96907.63
2023-03-31T06:26:02.681Z,96907.81
2023-03-31T06:29:05.839Z,96912.03
2023-03-31T06:32:09.052Z,96919.72
2023-03-31T06:35:12.735Z,96910.38
2023-03-31T06:38:15.899Z,96923.41
2023-03-31T06:41:22.354Z,96909.34
2023-03-31T06:44:25.831Z,96932.00
2023-03-31T06:47:29.476Z,96933.34
2023-03-31T06:50:32.725Z,96943.09
2023-03-31T06:53:36.799Z,96958.22
2023-03-31T06:56:41.316Z,96961.72
2023-03-31T06:59:44.563Z,96963.63
2023-03-31T07:03:09.141Z,96961.13
2023-03-31T07:06:12.552Z,96967.22
2023-03-31T07:09:15.748Z,96957.41
2023-03-31T07:12:20.577Z,96976.31
2023-03-31T07:15:24.717Z,96949.53
2023-03-31T07:18:34.366Z,96967.75
2023-03-31T07:21:38.342Z,96953.81
2023-03-31T07:24:41.638Z,96941.91
2023-03-31T07:27:58.124Z,96932.91
2023-03-31T07:31:01.409Z,96934.66
2023-03-31T07:34:05.489Z,96929.03
2023-03-31T07:37:08.618Z,96918.53
2023-03-31T07:40:15.360Z,96911.44
2023-03-31T07:43:39.757Z,96900.22
2023-03-31T07:46:43.397Z,96895.63
2023-03-31T07:49:48.247Z,96885.38
2023-03-31T07:52:51.926Z,96872.78
2023-03-31T07:55:55.618Z,96874.78
2023-03-31T07:59:00.778Z,96876.28
2023-03-31T08:02:12.277Z,96883.94
2023-03-31T08:05:17.728Z,96886.63
2023-03-31T08:08:21.497Z,96866.09
2023-03-31T08:11:25.863Z,96892.31
2023-03-31T08:14:40.696Z,96888.25
2023-03-31T08:17:44.669Z,96896.75
2023-03-31T08:20:49.960Z,96902.75
2023-03-31T08:23:55.037Z,96897.56
2023-03-31T08:26:58.474Z,96894.81
2023-03-31T08:30:04.470Z,96878.66
2023-03-31T08:33:08.733Z,96885.53
2023-03-31T08:36:12.965Z,96881.59
2023-03-31T08:39:16.140Z,96874.75
2023-03-31T08:42:43.016Z,96806.66
2023-03-31T08:45:49.258Z,96753.53
2023-03-31T08:48:55.313Z,96623.84
2023-03-31T08:52:03.326Z,96650.72
2023-03-31T08:55:09.770Z,96680.13
2023-03-31T08:58:30.220Z,96709.31
2023-03-31T09:01:54.709Z,96729.44
2023-03-31T09:05:19.730Z,96744.13
2023-03-31T09:08:34.723Z,96764.19
2023-03-31T09:11:41.654Z,96783.00
2023-03-31T09:14:54.878Z,96775.59
2023-03-31T09:18:07.948Z,96750.19
2023-03-31T09:21:18.267Z,96744.59
2023-03-31T09:24:25.206Z,96733.84
2023-03-31T09:27:50.369Z,96727.44
2023-03-31T09:30:55.393Z,96718.66
2023-03-31T09:35:18.462Z,96719.41
2023-03-31T09:38:21.804Z,96719.22
2023-03-31T09:41:25.017Z,96717.78
2023-03-31T09:44:37.912Z,96710.72
2023-03-31T09:47:43.741Z,96693.91
2023-03-31T09:50:51.598Z,96675.13
2023-03-31T09:54:00.464Z,96662.91
2023-03-31T09:57:31.294Z,96652.63
2023-03-31T10:00:37.300Z,96633.72
2023-03-31T10:03:50.947Z,96626.16
2023-03-31T10:06:57.101Z,96630.72
2023-03-31T10:10:00.696Z,96631.44
2023-03-31T10:13:26.606Z,96618.41
2023-03-31T10:16:32.626Z,96610.06
2023-03-31T10:19:38.628Z,96634.47
2023-03-31T10:22:47.186Z,96615.88
2023-03-31T10:25:51.600Z,96614.69
2023-03-31T10:28:55.944Z,96616.53
2023-03-31T10:32:04.328Z,96610.31
2023-03-31T10:35:23.553Z,96612.38
2023-03-31T10:38:32.014Z,96607.59
2023-03-31T10:41:35.321Z,96602.31
2023-03-31T10:44:40.389Z,96589.97
2023-03-31T10:47:43.618Z,96602.97
2023-03-31T10:50:47.292Z,96583.44
2023-03-31T10:53:53.678Z,96593.16
2023-03-31T10:57:01.462Z,96587.78
2023-03-31T11:00:17.578Z,96583.00
2023-03-31T11:03:43.547Z,96581.19
2023-03-31T11:06:55.990Z,96564.09
2023-03-31T11:10:21.271Z,96564.63
2023-03-31T11:13:53.795Z,96558.81
2023-03-31T11:17:04.558Z,96554.34
2023-03-31T11:20:19.080Z,96552.28
2023-03-31T11:23:36.785Z,96553.94
2023-03-31T11:26:48.833Z,96554.44
2023-03-31T11:29:59.209Z,96551.59
2023-03-31T11:33:17.930Z,96545.03
2023-03-31T11:36:36.776Z,96527.78
2023-03-31T11:39:51.750Z,96510.59
2023-03-31T11:43:26.467Z,96504.91
2023-03-31T11:46:36.814Z,96509.81
2023-03-31T11:49:43.375Z,96499.78
2023-03-31T11:52:58.081Z,96507.28
2023-03-31T11:56:04.989Z,96553.16
2023-03-31T11:59:15.438Z,96620.25
2023-03-31T12:02:23.693Z,96629.66
2023-03-31T12:05:29.628Z,96605.22
2023-03-31T12:08:39.136Z,96544.53
2023-03-31T12:11:47.480Z,96524.38
2023-03-31T12:14:56.365Z,96522.22
2023-03-31T12:18:02.853Z,96513.97
2023-03-31T12:21:07.340Z,96517.66
2023-03-31T12:24:13.911Z,96523.47
2023-03-31T12:27:40.137Z,96526.22
2023-03-31T12:30:46.215Z,96512.84
2023-03-31T12:33:56.881Z,96505.91
2023-03-31T12:37:22.208Z,96523.97
2023-03-31T12:40:45.308Z,96506.88
2023-03-31T12:44:11.817Z,96510.16
2023-03-31T12:47:40.728Z,96527.88
2023-03-31T12:50:56.840Z,96525.19
2023-03-31T12:54:14.559Z,96522.97
2023-03-31T12:57:37.620Z,96496.88
2023-03-31T13:01:07.469Z,96454.78
2023-03-31T13:04:21.935Z,96570.38
2023-03-31T13:07:42.282Z,96745.44
2023-03-31T13:10:58.038Z,96714.66
2023-03-31T13:14:03.830Z,96689.22
2023-03-31T13:17:15.742Z,96686.16
2023-03-31T13:20:37.599Z,96655.53
2023-03-31T13:23:46.545Z,96631.97
2023-03-31T13:26:50.453Z,96631.41
2023-03-31T13:29:54.575Z,96546.84
2023-03-31T13:33:06.131Z,96597.84
2023-03-31T13:36:28.052Z,96577.72
2023-03-31T13:40:08.134Z,96564.72
2023-03-31T13:43:49.429Z,96557.09
2023-03-31T13:47:20.295Z,96518.69
2023-03-31T13:51:10.824Z,96546.69
2023-03-31T13:54:45.464Z,96549.28
2023-03-31T13:58:34.196Z,96549.31
2023-03-31T14:01:51.732Z,96551.00
2023-03-31T14:05:25.088Z,96532.50
2023-03-31T14:08:40.937Z,96526.91
2023-03-31T14:11:45.388Z,96521.88
2023-03-31T14:14:54.706Z,96509.63
2023-03-31T14:17:59.669Z,96512.22
2023-03-31T14:21:17.704Z,96509.63
2023-03-31T14:24:29.189Z,96510.44
2023-03-31T14:28:05.044Z,96509.03
2023-03-31T14:31:20.208Z,96491.66
2023-03-31T14:34:42.869Z,96499.00
2023-03-31T14:37:46.541Z,96493.41
2023-03-31T14:40:53.876Z,96407.66
2023-03-31T14:44:02.765Z,96476.31
2023-03-31T14:47:14.648Z,96464.13
2023-03-31T14:50:19.973Z,96492.78
2023-03-31T14:53:25.946Z,96478.59
2023-03-31T14:56:36.168Z,96459.44
2023-03-31T14:59:41.017Z,96474.72
2023-03-31T15:02:46.979Z,96474.03
2023-03-31T15:05:50.495Z,96481.78
2023-03-31T15:08:58.045Z,96457.53
2023-03-31T15:12:23.470Z,96460.72
2023-03-31T15:15:28.200Z,96455.72
2023-03-31T15:18:32.503Z,96467.94
2023-03-31T15:21:39.035Z,96466.91
2023-03-31T15:24:42.409Z,96460.31
2023-03-31T15:28:07.709Z,96458.34
2023-03-31T15:35:21.561Z,96466.06
2023-03-31T15:38:29.168Z,96465.44
2023-03-31T15:41:32.566Z,96462.50
2023-03-31T15:44:39.509Z,96438.00
2023-03-31T15:47:50.087Z,96463.19
2023-03-31T15:51:01.009Z,96469.13
2023-03-31T15:54:04.905Z,96462.03
2023-03-31T15:57:36.325Z,96459.00
2023-03-31T16:00:47.168Z,96449.97
2023-03-31T16:03:54.090Z,96448.41
2023-03-31T16:07:05.105Z,96419.06
2023-03-31T16:10:16.561Z,96444.06
2023-03-31T16:13:23.389Z,96444.31
2023-03-31T16:16:30.801Z,96426.88
2023-03-31T16:19:42.318Z,96442.44
2023-03-31T16:22:51.337Z,96443.19
2023-03-31T16:25:55.378Z,96446.97
2023-03-31T16:28:59.054Z,96443.78
2023-03-31T16:32:10.953Z,96454.75
2023-03-31T16:35:14.381Z,96453.81
2023-03-31T16:38:19.428Z,96454.28
2023-03-31T16:41:24.198Z,96467.88
2023-03-31T16:44:27.744Z,96468.22
2023-03-31T16:47:35.909Z,96470.81
2023-03-31T16:50:41.080Z,96457.38
2023-03-31T16:53:46.754Z,96461.50
2023-03-31T16:56:49.921Z,96478.34
2023-03-31T16:59:53.225Z,96480.59
2023-03-31T17:03:01.462Z,96482.56
2023-03-31T17:06:07.512Z,96488.13
2023-03-31T17:09:12.133Z,96475.97
2023-03-31T17:12:34.988Z,96480.66
2023-03-31T17:15:38.810Z,96484.44
2023-03-31T17:18:42.066Z,96483.47
2023-03-31T17:21:45.341Z,96488.91
2023-03-31T17:24:52.827Z,96489.22
2023-03-31T17:28:15.814Z,96484.31
2023-03-31T17:31:20.606Z,96483.72
2023-03-31T17:34:23.809Z,96488.06
2023-03-31T17:37:27.216Z,96488.84
2023-03-31T17:40:33.535Z,96497.28
2023-03-31T17:43:37.978Z,96499.66
2023-03-31T17:46:41.338Z,96500.41
2023-03-31T17:49:44.798Z,96500.59
2023-03-31T17:52:48.014Z,96494.53
2023-03-31T17:55:52.539Z,96441.00
2023-03-31T17:58:56.511Z,96500.94
2023-03-31T18:02:06.610Z,96509.19
2023-03-31T18:05:10.831Z,96512.13
2023-03-31T18:08:14.221Z,96522.22
2023-03-31T18:11:18.774Z,96523.34
2023-03-31T18:14:22.394Z,96521.88
2023-03-31T18:17:25.624Z,96514.63
2023-03-31T18:20:28.998Z,96515.78
2023-03-31T18:23:33.677Z,96524.91
2023-03-31T18:26:38.344Z,96539.41
2023-03-31T18:29:41.756Z,96538.47
2023-03-31T18:32:44.898Z,96537.44
2023-03-31T18:35:48.408Z,96545.91
2023-03-31T18:38:53.303Z,96551.47
2023-03-31T18:42:18.426Z,96558.94
2023-03-31T18:45:21.928Z,96554.81
2023-03-31T18:48:25.466Z,96559.97
2023-03-31T18:51:28.661Z,96559.00
2023-03-31T18:54:32.178Z,96555.59
2023-03-31T18:57:59.109Z,96576.47
2023-03-31T19:01:02.559Z,96574.09
2023-03-31T19:04:06.138Z,96570.38
2023-03-31T19:07:09.307Z,96579.19
2023-03-31T19:10:12.519Z,96576.69
2023-03-31T19:13:38.144Z,96586.56
2023-03-31T19:16:42.449Z,96580.03
2023-03-31T19:19:46.216Z,96576.22
2023-03-31T19:22:51.458Z,96579.84
2023-03-31T19:25:55.834Z,96582.63
2023-03-31T19:29:00.572Z,96586.56
2023-03-31T19:32:08.065Z,96599.72
2023-03-31T19:35:14.366Z,96554.50
2023-03-31T19:38:18.791Z,96587.50
2023-03-31T19:41:22.001Z,96599.09
2023-03-31T19:44:26.598Z,96577.66
2023-03-31T19:47:29.884Z,96582.84
2023-03-31T19:50:33.060Z,96576.75
2023-03-31T19:53:38.015Z,96582.53
2023-03-31T19:56:41.715Z,96570.94
2023-03-31T19:59:46.707Z,96571.88
2023-03-31T20:02:50.135Z,96571.38
2023-03-31T20:05:54.055Z,96567.75
2023-03-31T20:09:00.318Z,96561.59
2023-03-31T20:12:23.237Z,96592.00
2023-03-31T20:15:27.920Z,96606.44
2023-03-31T20:18:31.664Z,96594.41
2023-03-31T20:21:37.575Z,96610.69
2023-03-31T20:24:40.781Z,96614.34
2023-03-31T20:28:04.040Z,96632.59
2023-03-31T20:31:10.214Z,96631.16
2023-03-31T20:34:16.596Z,96638.53
2023-03-31T20:37:19.848Z,96647.66
2023-03-31T20:40:23.538Z,96639.63
2023-03-31T20:43:46.379Z,96627.56
2023-03-31T20:46:52.376Z,96632.97
2023-03-31T20:49:55.666Z,96621.56
2023-03-31T20:52:58.968Z,96619.72
2023-03-31T20:56:02.722Z,96621.94
2023-03-31T20:59:06.906Z,96624.06
2023-03-31T21:02:14.136Z,96601.56
2023-03-31T21:05:18.007Z,96626.06
2023-03-31T21:08:21.495Z,96637.50
2023-03-31T21:11:27.321Z,96643.28
2023-03-31T21:14:30.717Z,96653.72
2023-03-31T21:17:35.297Z,96649.56
2023-03-31T21:20:38.561Z,96656.47
2023-03-31T21:23:42.021Z,96650.13
2023-03-31T21:26:45.419Z,96654.19
2023-03-31T21:29:48.594Z,96658.06
2023-03-31T21:35:08.612Z,96658.22
2023-03-31T21:38:11.998Z,96652.44
2023-03-31T21:41:17.100Z,96661.19
2023-03-31T21:44:20.345Z,96660.47
2023-03-31T21:47:23.629Z,96650.13
2023-03-31T21:50:28.146Z,96656.41
2023-03-31T21:53:32.359Z,96661.75
2023-03-31T21:56:35.742Z,96647.63
2023-03-31T21:59:39.160Z,96651.63
2023-03-31T22:02:42.825Z,96652.44
2023-03-31T22:05:47.643Z,96654.47
2023-03-31T22:08:51.490Z,96652.69
2023-03-31T22:11:54.633Z,96647.25
2023-03-31T22:14:57.853Z,96645.25
2023-03-31T22:18:01.360Z,96650.41
2023-03-31T22:21:14.558Z,96630.59
2023-03-31T22:24:17.690Z,96653.34
2023-03-31T22:27:20.786Z,96646.44
2023-03-31T22:30:24.366Z,96641.81
2023-03-31T22:33:27.618Z,96655.00
2023-03-31T22:36:32.111Z,96653.91
2023-03-31T22:39:35.469Z,96646.09
2023-03-31T22:42:38.720Z,96646.25
2023-03-31T22:45:41.989Z,96639.25
2023-03-31T22:48:49.423Z,96649.63
2023-03-31T22:51:55.909Z,96639.69
2023-03-31T22:54:59.176Z,96649.56
2023-03-31T22:58:02.475Z,96648.09
2023-03-31T23:01:07.232Z,96642.03
2023-03-31T23:04:10.677Z,96644.59
2023-03-31T23:07:15.855Z,96645.13
2023-03-31T23:10:19.219Z,96642.47
2023-03-31T23:13:22.372Z,96646.25
2023-03-31T23:16:27.192Z,96629.03
2023-03-31T23:19:30.713Z,96634.09
2023-03-31T23:22:35.211Z,96641.28
2023-03-31T23:25:38.339Z,96637.78
2023-03-31T23:28:42.546Z,96624.59
2023-03-31T23:31:45.739Z,96630.41
2023-03-31T23:34:49.032Z,96632.97
2023-03-31T23:37:53.631Z,96617.88
2023-03-31T23:40:56.998Z,96624.22
2023-03-31T23:44:00.509Z,96616.41
2023-03-31T23:47:04.143Z,96606.06
2023-03-31T23:50:08.997Z,96614.25
2023-03-31T23:53:14.299Z,96619.16
2023-03-31T23:56:17.437Z,96613.06
2023-03-31T23:59:21.120Z,96612.97
